Cap Haitien International Airport
MTCH : now visible

Airfield :











YOU CAN JOIN US ON...

 
LOGIN :

Register | Disclaimer

   EN    FR    IT 

 









Legend :    VFR   Marginal VFR   IFR   Intensive IFR   Very Intensive IFR
Visi :
Ceiling :
>= 8 km
>= 3000ft
5 to 8 km
1000 to 3000 ft
1500m to 5 km
500 to 1000 ft
800 to 1500m
200 to 500 ft
< 800m
< 200 ft
Symbols :   Thunderstorms  Fog  Heavy snow  Heavy precipitations  Wind > 20 kt






- Airport Elevation : 10 ft
- IATA code : CAP


MTCH - Cap Haitien International

CURRENT METAR :
  • 191557Z 09011KT 9000 SCT025CB BKN060 26/19 Q1019 RMK: CB/ALLQDS

EXPIRED METARs :
  • 191502Z 08011KT 9000 SCT025CB BKN060 26/19 Q1019 RMK/ CB/ALLQDS
  • 191350Z 05008KT 8000 SCT024CB BKN060 25/19 Q1020 RMK/ CB/ALLQDS

TAF TAF MTCH
Valid from the 18 at 18:00 until the 19 at 18:00 UTC


181802Z 1818/1918 05020KT 8000 SCT025CB BKN060
PROB40
TEMPO 1822/1902 4500 SHRA
BECMG 1908/1912 VRB02KT 9000 FEW016 SCT020
TEMPO 1914/1918 03015G25KT



MET'MAP, your aeronautical weather chart ! - Copyright ORBIFLY December 2007 - Disclaimer

ORBIFLY MET'MAP TEAM :

Programming & Development : Alexandra Zaïnal
Concept & original design : Baudouin d'Aumeries
Assistance for programming : Marc-Olivier Méhu
Technical & hardware support : Manuel Goepfert

Contact : metmap@orbifly.com




SOURCES & CREDITS :

   NOAA       Earth
Advisory